Time;durP1;ratioP1;P1;durP2;ratioP2;P2;SDS_P1;SDS_P2;PMS_P1;PMS_P2;Temp;Humidity;BMP_temperature;BMP_pressure;BME280_temperature;BME280_humidity;BME280_pressure;Samples;Min_cycle;Max_cycle;Signal;HPM_P1;HPM_P2
2022/07/08 00:00:46;;;;;;;7.60;1.88;;;14.50;99.90;;;;;;4994738;28;20053;-84
2022/07/08 00:03:55;;;;;;;;;;;;;;;;;;;;;
2022/07/08 00:06:40;;;;;;;9.98;1.90;;;14.50;99.90;;;;;;5018935;28;20060;-84
2022/07/08 00:16:49;;;;;;;9.15;2.38;;;14.30;99.90;;;;;;4968287;28;20182;-83
2022/07/08 00:19:19;;;;;;;7.93;2.00;;;14.20;99.90;;;;;;4948663;28;20038;-84
2022/07/08 00:21:49;;;;;;;9.43;1.90;;;14.20;99.90;;;;;;4995375;28;20061;-84
2022/07/08 00:25:05;;;;;;;6.88;2.15;;;14.20;99.90;;;;;;5019536;28;20137;-84
2022/07/08 00:27:33;;;;;;;7.55;2.13;;;14.20;99.90;;;;;;5025715;28;20096;-84
2022/07/08 00:30:12;;;;;;;10.60;2.30;;;14.10;99.90;;;;;;5012108;28;20124;-84
2022/07/08 00:32:48;;;;;;;7.03;1.67;;;14.10;99.90;;;;;;5015904;28;20598;-83
2022/07/08 00:35:47;;;;;;;8.80;2.30;;;14.10;99.90;;;;;;5013918;28;20052;-84
2022/07/08 00:38:26;;;;;;;9.75;2.15;;;14.10;99.90;;;;;;4958854;28;20079;-83
2022/07/08 00:41:15;;;;;;;7.75;2.10;;;14.00;99.90;;;;;;5004129;28;20052;-83
2022/07/08 00:43:51;;;;;;;8.63;1.90;;;14.00;99.90;;;;;;5012542;28;20464;-84
2022/07/08 00:46:19;;;;;;;8.32;2.40;;;14.00;99.90;;;;;;5011156;28;20124;-84
2022/07/08 00:48:59;;;;;;;9.77;2.33;;;14.00;99.90;;;;;;5013439;28;20045;-83
2022/07/08 00:51:39;;;;;;;9.18;2.10;;;14.00;99.90;;;;;;5027656;28;20069;-84
2022/07/08 00:54:06;;;;;;;;;;;14.00;99.90;;;;;;5015367;28;20042;-84
2022/07/08 00:56:41;;;;;;;7.82;2.28;;;14.00;99.90;;;;;;5013353;28;19925;-84
2022/07/08 00:59:27;;;;;;;8.85;2.03;;;13.90;99.90;;;;;;5024160;28;20079;-83
2022/07/08 01:02:20;;;;;;;7.55;2.08;;;13.90;99.90;;;;;;5019822;28;20105;-84
2022/07/08 01:04:46;;;;;;;11.88;2.25;;;13.90;99.90;;;;;;4999242;28;20150;-84
2022/07/08 01:07:17;;;;;;;12.07;2.00;;;13.90;99.90;;;;;;5013103;28;20756;-84
2022/07/08 01:09:51;;;;;;;9.75;2.00;;;13.90;99.90;;;;;;5016313;28;20049;-84
2022/07/08 01:12:35;;;;;;;8.85;1.90;;;13.80;99.90;;;;;;5010947;28;20075;-84
2022/07/08 01:15:48;;;;;;;9.88;2.47;;;13.90;99.90;;;;;;5026336;28;20096;-84
2022/07/08 01:19:01;;;;;;;8.43;2.33;;;13.80;99.90;;;;;;4994795;28;20564;-84
2022/07/08 01:21:45;;;;;;;9.25;2.17;;;13.80;99.90;;;;;;4938098;28;20042;-84
2022/07/08 01:24:20;;;;;;;9.95;2.63;;;13.80;99.90;;;;;;4993770;28;20037;-85
2022/07/08 01:27:01;;;;;;;;;;;13.70;99.90;;;;;;5000547;28;20045;-84
2022/07/08 01:29:28;;;;;;;9.25;2.55;;;13.70;99.90;;;;;;4985846;28;20432;-83
2022/07/08 01:32:29;;;;;;;8.45;1.98;;;13.60;99.90;;;;;;5002252;28;20041;-85
2022/07/08 01:35:06;;;;;;;10.73;2.65;;;13.60;99.90;;;;;;4993289;28;20504;-84
2022/07/08 01:45:59;;;;;;;10.75;2.50;;;13.40;99.90;;;;;;4903105;29;20416;-83
2022/07/08 01:49:21;;;;;;;11.52;2.85;;;13.30;99.90;;;;;;4923862;28;20057;-84
2022/07/08 01:52:25;;;;;;;9.63;2.47;;;13.30;99.90;;;;;;4934647;28;20098;-84
2022/07/08 01:55:08;;;;;;;6.50;2.17;;;13.20;99.90;;;;;;4941060;28;20089;-84
2022/07/08 02:02:09;;;;;;;;;;;;;;;;;;;;;
2022/07/08 02:05:17;;;;;;;9.80;3.15;;;13.10;99.90;;;;;;4921081;28;20055;-84
2022/07/08 02:07:46;;;;;;;10.85;2.75;;;13.10;99.90;;;;;;4930055;28;20070;-83
2022/07/08 02:12:28;;;;;;;;;;;;;;;;;;;;;
2022/07/08 02:14:00;;;;;;;9.10;2.95;;;13.00;99.90;;;;;;4960233;28;20045;-84
2022/07/08 02:17:22;;;;;;;10.65;2.90;;;13.00;99.90;;;;;;4952300;28;20548;-84
2022/07/08 02:19:50;;;;;;;9.25;2.92;;;12.90;99.90;;;;;;4961071;28;20521;-84
2022/07/08 02:23:45;;;;;;;8.63;2.75;;;12.90;99.90;;;;;;4943745;28;20066;-84
2022/07/08 02:26:50;;;;;;;;;;;;;;;;;;;;;
2022/07/08 02:30:04;;;;;;;13.75;2.83;;;12.80;99.90;;;;;;4961443;28;20098;-84
2022/07/08 02:40:34;;;;;;;;;;;12.70;99.90;;;;;;4902150;29;20209;-84
2022/07/08 02:46:12;;;;;;;9.13;3.53;;;12.50;99.90;;;;;;4863138;29;21306;-84
2022/07/08 02:49:01;;;;;;;9.73;2.78;;;12.50;99.90;;;;;;4867879;29;20138;-85
2022/07/08 02:52:06;;;;;;;8.30;3.10;;;12.60;99.90;;;;;;4884607;29;20848;-84
2022/07/08 02:55:47;;;;;;;9.32;2.97;;;12.60;99.90;;;;;;4870708;29;20052;-84
2022/07/08 03:23:15;;;;;;;;;;;;;;;;;;;;;
2022/07/08 04:21:46;;;;;;;11.70;2.78;;;12.20;99.90;;;;;;4830872;29;20068;-84
2022/07/08 05:21:22;;;;;;;12.98;3.05;;;12.70;99.90;;;;;;6182026;22;1932400;-82
2022/07/08 05:26:42;;;;;;;10.45;2.80;;;13.70;99.90;;;;;;6203749;23;20077;-83
2022/07/08 05:29:28;;;;;;;11.02;2.80;;;13.70;99.90;;;;;;6206264;23;20870;-84
2022/07/08 05:32:38;;;;;;;9.02;2.78;;;13.80;99.90;;;;;;6193992;23;20024;-84
2022/07/08 05:35:19;;;;;;;12.00;3.15;;;13.90;99.90;;;;;;6211703;23;20031;-85
2022/07/08 05:38:05;;;;;;;12.43;3.33;;;14.00;99.90;;;;;;6169535;23;20022;-85
2022/07/08 05:40:49;;;;;;;9.30;2.40;;;14.10;99.90;;;;;;6196876;23;20016;-86
2022/07/08 05:43:39;;;;;;;9.45;2.60;;;14.20;99.90;;;;;;6193353;23;20030;-86
2022/07/08 05:46:08;;;;;;;12.27;2.78;;;14.30;99.90;;;;;;6192002;23;20027;-83
2022/07/08 05:49:07;;;;;;;10.63;2.80;;;14.40;99.90;;;;;;6166315;23;20449;-85
2022/07/08 05:51:36;;;;;;;11.38;2.95;;;14.40;99.90;;;;;;6191452;23;20020;-84
2022/07/08 05:54:02;;;;;;;7.97;2.60;;;14.50;99.90;;;;;;6191371;23;20016;-85
2022/07/08 05:56:28;;;;;;;10.10;2.63;;;14.60;99.90;;;;;;6192506;23;20028;-78
2022/07/08 05:58:54;;;;;;;11.23;2.80;;;14.60;99.90;;;;;;6194051;23;20322;-79
2022/07/08 06:01:25;;;;;;;13.70;2.85;;;14.70;99.90;;;;;;6192555;23;20031;-78
2022/07/08 06:03:51;;;;;;;10.13;2.72;;;14.70;99.90;;;;;;6193799;23;20080;-79
2022/07/08 06:06:26;;;;;;;15.68;2.97;;;14.80;99.90;;;;;;6167412;23;20113;-78
2022/07/08 06:08:55;;;;;;;9.95;3.13;;;15.00;99.90;;;;;;6192119;23;20012;-79
2022/07/08 06:11:21;;;;;;;10.68;2.67;;;15.00;99.90;;;;;;6192859;23;20078;-79
2022/07/08 06:13:47;;;;;;;12.73;2.30;;;15.10;99.90;;;;;;6191698;23;20373;-79
2022/07/08 06:16:13;;;;;;;9.23;2.30;;;15.30;99.90;;;;;;6192277;23;20019;-79
2022/07/08 06:18:39;;;;;;;10.75;3.00;;;15.40;99.90;;;;;;6192360;23;20027;-80
2022/07/08 06:21:05;;;;;;;11.48;3.10;;;15.50;99.90;;;;;;6183486;23;20111;-78
2022/07/08 06:23:31;;;;;;;11.73;2.72;;;15.60;99.90;;;;;;6179713;23;20020;-79
2022/07/08 06:25:57;;;;;;;8.57;2.78;;;15.70;99.90;;;;;;6183606;23;20023;-78
2022/07/08 06:28:25;;;;;;;12.10;2.63;;;15.80;99.90;;;;;;6181337;23;20024;-78
2022/07/08 06:30:54;;;;;;;8.73;2.40;;;15.90;99.90;;;;;;6207450;23;20012;-80
2022/07/08 06:33:20;;;;;;;9.27;2.50;;;16.00;99.90;;;;;;6182061;23;20020;-78
2022/07/08 06:35:47;;;;;;;9.75;2.50;;;16.00;99.90;;;;;;6181832;23;20021;-79
2022/07/08 06:38:13;;;;;;;12.70;3.50;;;16.10;99.90;;;;;;6180841;23;20024;-79
2022/07/08 06:40:39;;;;;;;12.70;2.80;;;16.10;99.90;;;;;;6181246;23;20048;-78
2022/07/08 06:43:05;;;;;;;9.85;3.03;;;16.20;99.90;;;;;;6181432;23;20078;-77
2022/07/08 06:45:32;;;;;;;10.73;3.20;;;16.20;99.90;;;;;;6181227;23;20100;-77
2022/07/08 06:47:59;;;;;;;12.10;3.08;;;16.30;99.90;;;;;;6206301;23;20023;-77
2022/07/08 06:50:25;;;;;;;9.00;2.40;;;16.40;99.90;;;;;;6206563;23;20441;-78
2022/07/08 06:52:51;;;;;;;8.57;2.65;;;16.40;99.90;;;;;;6182715;23;20036;-77
2022/07/08 06:55:20;;;;;;;13.95;3.88;;;16.50;99.90;;;;;;6207865;23;20127;-78
2022/07/08 06:57:46;;;;;;;8.70;2.20;;;16.60;99.90;;;;;;6182359;23;20096;-78
2022/07/08 07:00:13;;;;;;;8.40;2.25;;;16.60;99.90;;;;;;6182306;23;20442;-77
2022/07/08 07:02:39;;;;;;;11.93;2.70;;;16.70;99.90;;;;;;6182378;23;20025;-77
2022/07/08 07:05:09;;;;;;;10.50;2.60;;;16.70;99.90;;;;;;6182600;23;20024;-77
2022/07/08 07:07:35;;;;;;;10.40;2.78;;;16.80;99.90;;;;;;6181410;23;20016;-77
2022/07/08 07:10:01;;;;;;;11.15;2.53;;;16.80;99.90;;;;;;6205056;23;20013;-79
2022/07/08 07:12:28;;;;;;;8.50;2.00;;;16.90;99.90;;;;;;6179384;23;20020;-77
2022/07/08 07:14:54;;;;;;;8.40;2.58;;;17.00;99.90;;;;;;6158062;23;20068;-79
2022/07/08 07:17:21;;;;;;;13.52;2.65;;;17.00;99.90;;;;;;6206808;23;20103;-79
2022/07/08 07:19:48;;;;;;;12.25;2.47;;;17.10;99.90;;;;;;6209323;23;20276;-79
2022/07/08 07:22:15;;;;;;;10.40;2.38;;;17.20;99.90;;;;;;6187020;23;20028;-78
2022/07/08 07:24:41;;;;;;;9.85;2.55;;;17.20;99.90;;;;;;6211230;23;20101;-78
2022/07/08 07:27:10;;;;;;;8.27;2.28;;;17.30;99.90;;;;;;6210754;23;20020;-78
2022/07/08 07:29:36;;;;;;;10.45;2.72;;;17.40;99.90;;;;;;6183546;23;20449;-79
2022/07/08 07:32:02;;;;;;;10.57;2.30;;;17.40;99.90;;;;;;6185454;23;20023;-78
2022/07/08 07:34:28;;;;;;;9.63;1.98;;;17.50;99.90;;;;;;6184373;23;20024;-78
2022/07/08 07:36:54;;;;;;;9.10;2.65;;;17.60;99.90;;;;;;6160922;23;20024;-79
2022/07/08 07:39:20;;;;;;;9.23;2.53;;;17.60;99.90;;;;;;6186995;23;20016;-79
2022/07/08 07:41:46;;;;;;;9.77;2.65;;;17.70;99.90;;;;;;6162381;23;20327;-79
2022/07/08 07:44:13;;;;;;;10.07;2.17;;;17.70;99.90;;;;;;6188683;23;20051;-79
2022/07/08 07:46:39;;;;;;;10.35;2.08;;;17.80;99.90;;;;;;6186344;23;20091;-78
2022/07/08 07:49:04;;;;;;;8.27;2.08;;;17.90;99.90;;;;;;6185771;23;20058;-79
2022/07/08 07:51:30;;;;;;;9.55;2.58;;;18.00;99.90;;;;;;6185762;23;20074;-79
2022/07/08 07:53:56;;;;;;;8.48;2.10;;;18.00;99.90;;;;;;6187170;23;20078;-79
2022/07/08 07:56:23;;;;;;;7.18;1.85;;;18.10;99.90;;;;;;6186495;23;20027;-79
2022/07/08 07:58:49;;;;;;;7.25;1.75;;;18.00;99.90;;;;;;6184821;23;20508;-79
2022/07/08 08:01:15;;;;;;;9.65;2.55;;;18.20;99.90;;;;;;6186193;23;20059;-79
2022/07/08 08:03:41;;;;;;;8.18;2.03;;;18.20;99.90;;;;;;6185905;23;20432;-79
2022/07/08 08:06:10;;;;;;;6.88;2.20;;;18.20;99.90;;;;;;6185989;23;20016;-78
2022/07/08 08:08:36;;;;;;;9.10;2.03;;;18.20;99.90;;;;;;6160802;23;20016;-78
2022/07/08 08:11:06;;;;;;;5.68;1.85;;;18.10;99.90;;;;;;6185899;23;20058;-78
2022/07/08 08:13:35;;;;;;;8.13;2.20;;;18.10;99.90;;;;;;6186586;23;20026;-78
2022/07/08 08:16:00;;;;;;;9.30;2.05;;;18.10;99.90;;;;;;6160952;23;20016;-78
2022/07/08 08:18:26;;;;;;;10.20;2.47;;;18.10;99.90;;;;;;6211662;23;20024;-79
2022/07/08 08:20:52;;;;;;;8.35;2.20;;;18.10;99.90;;;;;;6185853;23;20474;-79
2022/07/08 08:23:18;;;;;;;8.23;2.10;;;18.30;99.90;;;;;;6187631;23;20023;-79
2022/07/08 08:25:44;;;;;;;8.15;2.13;;;18.40;99.90;;;;;;6185653;23;20016;-79
2022/07/08 08:28:10;;;;;;;8.00;2.03;;;18.50;99.90;;;;;;6186857;23;20020;-79
2022/07/08 08:30:36;;;;;;;9.82;2.70;;;18.60;99.90;;;;;;6210569;23;20263;-79
2022/07/08 08:33:02;;;;;;;7.15;2.60;;;18.60;99.90;;;;;;6161920;23;20016;-78
2022/07/08 08:35:28;;;;;;;9.43;2.72;;;18.70;99.90;;;;;;6210866;23;20380;-79
2022/07/08 08:37:53;;;;;;;7.30;2.20;;;18.70;99.90;;;;;;6161822;23;20016;-79
2022/07/08 08:40:24;;;;;;;8.50;1.98;;;18.80;99.90;;;;;;6211602;23;20026;-78
2022/07/08 08:42:55;;;;;;;8.60;2.25;;;18.90;99.90;;;;;;6187751;23;20326;-79
2022/07/08 08:45:25;;;;;;;8.30;2.30;;;19.00;99.90;;;;;;6187105;23;20023;-78
2022/07/08 08:47:53;;;;;;;12.18;3.33;;;19.00;99.90;;;;;;6211246;23;20341;-79
2022/07/08 08:53:12;;;;;;;8.95;2.25;;;19.30;99.90;;;;;;6210618;23;20078;-79
2022/07/08 08:55:39;;;;;;;9.90;2.60;;;19.40;99.90;;;;;;6185096;23;20028;-79
2022/07/08 08:58:06;;;;;;;7.72;2.28;;;19.40;99.90;;;;;;6186004;23;20017;-77
2022/07/08 09:00:34;;;;;;;11.85;2.47;;;19.40;99.90;;;;;;6183833;23;20378;-77
2022/07/08 09:03:01;;;;;;;10.25;2.63;;;19.40;99.90;;;;;;6159035;23;20020;-77
2022/07/08 09:05:28;;;;;;;8.27;2.22;;;19.40;99.90;;;;;;6209680;23;20016;-77
2022/07/08 09:07:54;;;;;;;9.00;2.65;;;19.30;99.90;;;;;;6161142;23;20016;-77
2022/07/08 09:10:26;;;;;;;7.25;2.38;;;19.30;99.90;;;;;;6181188;23;20027;-78
2022/07/08 09:13:14;;;;;;;10.05;2.35;;;19.30;99.90;;;;;;6186661;23;20013;-77
2022/07/08 09:15:47;;;;;;;8.48;2.30;;;19.20;99.90;;;;;;6185779;23;20484;-77
2022/07/08 09:18:14;;;;;;;5.68;1.95;;;19.20;99.90;;;;;;6187001;23;20458;-77
2022/07/08 09:20:49;;;;;;;7.05;2.13;;;19.10;99.90;;;;;;6185947;23;20441;-77
2022/07/08 09:23:18;;;;;;;9.48;2.10;;;19.10;99.90;;;;;;6183693;23;20024;-77
2022/07/08 09:25:55;;;;;;;8.13;2.17;;;19.20;99.90;;;;;;6211786;23;20020;-77
2022/07/08 09:28:43;;;;;;;8.60;2.15;;;19.20;99.90;;;;;;6210643;23;20031;-78
2022/07/08 09:31:13;;;;;;;5.78;2.15;;;19.30;99.90;;;;;;6185006;23;20016;-78
2022/07/08 09:33:41;;;;;;;8.57;2.35;;;19.40;99.90;;;;;;6158172;23;20016;-77
2022/07/08 09:36:14;;;;;;;8.88;2.80;;;19.50;99.90;;;;;;6187973;23;20142;-77
2022/07/08 09:38:41;;;;;;;13.10;2.75;;;19.60;99.90;;;;;;6189993;23;20111;-78
2022/07/08 09:41:15;;;;;;;9.07;2.67;;;19.70;99.90;;;;;;6210967;23;20067;-78
2022/07/08 09:43:48;;;;;;;5.68;2.00;;;19.70;99.90;;;;;;6186021;23;20028;-77
2022/07/08 09:46:14;;;;;;;7.72;2.25;;;19.80;99.90;;;;;;6208313;23;20408;-77
2022/07/08 09:48:39;;;;;;;9.15;1.80;;;19.90;99.90;;;;;;6211329;23;20091;-77
2022/07/08 09:51:08;;;;;;;7.22;1.95;;;19.90;99.90;;;;;;6186768;23;20055;-77
2022/07/08 09:53:36;;;;;;;7.65;2.60;;;19.90;99.90;;;;;;6162652;23;20046;-77
2022/07/08 09:56:03;;;;;;;8.48;2.35;;;19.80;99.90;;;;;;6187371;23;20035;-77
2022/07/08 09:58:31;;;;;;;8.10;2.33;;;19.80;99.90;;;;;;6188999;23;20098;-77
2022/07/08 10:00:58;;;;;;;7.75;2.30;;;19.90;99.90;;;;;;6187260;23;20039;-78
2022/07/08 10:03:24;;;;;;;6.88;2.25;;;19.90;99.90;;;;;;6185946;23;20024;-78
2022/07/08 10:05:51;;;;;;;6.63;1.70;;;19.90;99.90;;;;;;6212485;23;20085;-77
2022/07/08 10:08:18;;;;;;;7.47;2.28;;;19.90;99.90;;;;;;6187473;23;20024;-78
2022/07/08 10:10:46;;;;;;;9.77;2.25;;;19.90;99.90;;;;;;6187155;23;20071;-77
2022/07/08 10:13:16;;;;;;;6.75;2.10;;;19.80;99.90;;;;;;6164307;23;20016;-78
2022/07/08 10:15:43;;;;;;;8.73;2.50;;;19.70;99.90;;;;;;6187804;23;20020;-78
2022/07/08 10:18:17;;;;;;;6.85;2.10;;;19.70;99.90;;;;;;6162518;23;20290;-78
2022/07/08 10:20:57;;;;;;;9.25;2.80;;;19.60;99.90;;;;;;6181742;23;20027;-78
2022/07/08 10:23:28;;;;;;;6.40;2.35;;;19.70;99.90;;;;;;6180682;23;20021;-78
2022/07/08 10:25:58;;;;;;;7.65;2.60;;;19.70;99.90;;;;;;6208541;23;20076;-78
2022/07/08 10:28:37;;;;;;;6.40;2.08;;;19.70;99.90;;;;;;6207724;23;20056;-77
2022/07/08 10:31:18;;;;;;;10.65;2.05;;;19.70;99.90;;;;;;6205239;23;20389;-76
2022/07/08 10:33:48;;;;;;;8.95;3.08;;;19.80;99.90;;;;;;6181231;23;20025;-78
2022/07/08 10:36:19;;;;;;;8.88;2.25;;;19.80;99.90;;;;;;6156077;23;20016;-79
2022/07/08 10:38:45;;;;;;;6.57;2.03;;;19.90;99.90;;;;;;6153180;23;20025;-78
2022/07/08 10:41:12;;;;;;;6.15;2.08;;;19.90;99.90;;;;;;6204897;23;20410;-78
2022/07/08 10:43:49;;;;;;;7.00;2.95;;;20.00;99.90;;;;;;6157239;23;20035;-77
2022/07/08 10:46:16;;;;;;;6.50;2.40;;;20.00;99.90;;;;;;6179027;23;20020;-76
2022/07/08 10:48:45;;;;;;;8.18;2.42;;;20.00;99.90;;;;;;6179912;23;20528;-79
2022/07/08 10:51:20;;;;;;;8.60;3.03;;;20.00;99.90;;;;;;6180061;23;20043;-78
2022/07/08 10:54:00;;;;;;;9.18;2.55;;;20.00;99.90;;;;;;6180191;23;20477;-78
2022/07/08 10:56:53;;;;;;;6.30;1.77;;;20.00;99.90;;;;;;6179516;23;20023;-78
2022/07/08 10:59:26;;;;;;;7.50;2.63;;;20.10;99.90;;;;;;6181163;23;20063;-78
2022/07/08 11:02:03;;;;;;;6.38;2.13;;;20.20;99.90;;;;;;6180048;23;20100;-80
2022/07/08 11:04:31;;;;;;;6.30;1.90;;;20.20;99.90;;;;;;6180512;23;20016;-76
2022/07/08 11:07:16;;;;;;;7.78;2.35;;;20.10;99.90;;;;;;6181954;23;20027;-78
2022/07/08 11:09:47;;;;;;;9.18;2.63;;;20.10;99.90;;;;;;6182374;23;20012;-78
2022/07/08 11:12:14;;;;;;;10.57;2.22;;;20.10;99.90;;;;;;6205642;23;20464;-77
2022/07/08 11:14:51;;;;;;;8.40;2.10;;;20.00;99.90;;;;;;6182394;23;20022;-77
2022/07/08 11:17:40;;;;;;;7.68;2.08;;;20.10;99.90;;;;;;6206476;23;20021;-78
2022/07/08 11:20:14;;;;;;;7.45;2.13;;;20.10;99.90;;;;;;6179997;23;20384;-77
2022/07/08 11:22:45;;;;;;;8.52;2.25;;;20.20;99.90;;;;;;6206758;23;20391;-77
2022/07/08 11:25:15;;;;;;;10.90;3.03;;;20.40;99.90;;;;;;6156893;23;20315;-78
2022/07/08 11:27:42;;;;;;;5.95;2.50;;;20.60;99.90;;;;;;6179710;23;20102;-78
2022/07/08 11:30:10;;;;;;;8.77;2.40;;;20.80;99.90;;;;;;6155602;23;20084;-77
2022/07/08 11:32:37;;;;;;;6.45;2.17;;;21.00;99.90;;;;;;6179473;23;20016;-79
2022/07/08 11:35:03;;;;;;;6.10;2.10;;;21.10;99.90;;;;;;6179975;23;20054;-77
2022/07/08 11:37:38;;;;;;;5.80;2.05;;;21.10;99.90;;;;;;6180844;23;20099;-78
2022/07/08 11:40:04;;;;;;;7.93;2.00;;;21.10;99.90;;;;;;6183209;23;20091;-78
2022/07/08 11:42:36;;;;;;;7.10;1.98;;;21.20;99.90;;;;;;6180516;23;20024;-78
2022/07/08 11:45:06;;;;;;;7.88;2.78;;;21.30;99.90;;;;;;6181016;23;20055;-78
2022/07/08 11:47:33;;;;;;;6.90;1.92;;;21.50;99.90;;;;;;6180440;23;20348;-78
2022/07/08 11:49:58;;;;;;;8.35;2.30;;;21.60;99.90;;;;;;6206422;23;20017;-76
2022/07/08 11:52:27;;;;;;;9.15;2.13;;;21.80;99.90;;;;;;6204700;23;20066;-78
2022/07/08 11:54:59;;;;;;;8.65;1.98;;;22.00;99.90;;;;;;6156145;23;20025;-77
2022/07/08 11:57:25;;;;;;;5.70;1.80;;;22.30;99.90;;;;;;6180302;23;20052;-78
2022/07/08 11:59:51;;;;;;;6.07;1.88;;;22.60;99.90;;;;;;6182162;23;20020;-78
2022/07/08 12:02:23;;;;;;;6.13;1.65;;;22.70;99.90;;;;;;6180019;23;20013;-78
2022/07/08 12:04:51;;;;;;;8.95;2.33;;;22.60;99.90;;;;;;6204910;23;20473;-78
2022/07/08 12:07:28;;;;;;;5.78;1.90;;;22.60;99.90;;;;;;6156303;23;20119;-78
2022/07/08 12:09:53;;;;;;;6.50;1.90;;;22.40;99.90;;;;;;6178934;23;20017;-80
2022/07/08 12:12:22;;;;;;;7.15;1.83;;;22.40;99.90;;;;;;6179948;23;20477;-78
2022/07/08 12:14:51;;;;;;;5.78;2.10;;;22.40;99.90;;;;;;6157110;23;20016;-80
2022/07/08 12:17:27;;;;;;;6.10;1.98;;;22.60;99.90;;;;;;6155814;23;20070;-78
2022/07/08 12:19:57;;;;;;;6.60;1.88;;;22.70;99.90;;;;;;6179742;23;20495;-78
2022/07/08 12:22:45;;;;;;;7.90;2.28;;;22.70;99.90;;;;;;6205839;23;20484;-77
2022/07/08 12:25:19;;;;;;;8.50;2.17;;;22.50;99.90;;;;;;6180640;23;20106;-78
2022/07/08 12:28:01;;;;;;;11.50;2.50;;;22.30;99.90;;;;;;6179888;23;20361;-78
2022/07/08 12:30:31;;;;;;;7.57;2.13;;;22.30;99.90;;;;;;6180026;23;20422;-78
2022/07/08 12:33:01;;;;;;;;;;;22.40;99.90;;;;;;6206026;23;20334;-78
2022/07/08 12:35:34;;;;;;;4.00;1.60;;;22.70;99.90;;;;;;6205597;23;19920;-77
2022/07/08 12:38:10;;;;;;;5.22;1.98;;;23.10;99.90;;;;;;6205959;23;20516;-79
2022/07/08 12:40:38;;;;;;;6.82;1.80;;;23.30;99.90;;;;;;6204382;23;20020;-78
2022/07/08 12:43:06;;;;;;;7.78;2.00;;;23.40;99.90;;;;;;6178580;23;20096;-78
2022/07/08 12:45:35;;;;;;;6.90;1.88;;;23.30;99.90;;;;;;6179888;23;20386;-79
2022/07/08 12:48:02;;;;;;;7.18;2.17;;;23.20;99.90;;;;;;6180662;23;20341;-78
2022/07/08 12:50:29;;;;;;;7.50;2.08;;;23.10;99.90;;;;;;6179691;23;20858;-77
2022/07/08 12:52:55;;;;;;;7.30;2.17;;;23.00;99.90;;;;;;6180582;23;20565;-78
2022/07/08 12:55:24;;;;;;;5.80;2.22;;;22.90;99.90;;;;;;6180395;23;20024;-78
2022/07/08 12:57:50;;;;;;;6.75;2.20;;;22.80;99.90;;;;;;6205605;23;20464;-78
2022/07/08 13:00:20;;;;;;;9.82;2.00;;;22.60;99.90;;;;;;6177294;23;20024;-78
2022/07/08 13:02:47;;;;;;;7.22;2.05;;;22.50;99.90;;;;;;6178729;23;20024;-78
2022/07/08 13:05:13;;;;;;;7.68;2.35;;;22.40;99.90;;;;;;6178380;23;20203;-78
2022/07/08 13:07:39;;;;;;;6.72;2.20;;;22.40;99.90;;;;;;6180450;23;20027;-78
2022/07/08 13:10:05;;;;;;;8.15;2.40;;;22.40;99.90;;;;;;6179911;23;20327;-77
2022/07/08 13:12:32;;;;;;;5.45;1.77;;;22.40;99.90;;;;;;6179026;23;20023;-78
2022/07/08 13:14:58;;;;;;;8.75;2.42;;;22.40;99.90;;;;;;6155979;23;20172;-77
2022/07/08 13:17:24;;;;;;;6.57;2.10;;;22.30;99.90;;;;;;6180391;23;20560;-76
2022/07/08 13:19:51;;;;;;;7.18;2.55;;;22.20;99.90;;;;;;6155604;23;20453;-77
2022/07/08 13:22:17;;;;;;;6.25;2.15;;;22.10;99.90;;;;;;6155811;23;20028;-77
2022/07/08 13:24:43;;;;;;;6.30;2.60;;;22.10;99.90;;;;;;6180740;23;20405;-78
2022/07/08 13:27:09;;;;;;;9.85;2.90;;;22.10;99.90;;;;;;6155496;23;20456;-77
2022/07/08 13:29:35;;;;;;;8.00;2.30;;;22.10;99.90;;;;;;6179940;23;20036;-77
2022/07/08 13:32:00;;;;;;;8.85;2.75;;;22.00;99.90;;;;;;6156464;23;20023;-77
2022/07/08 13:34:26;;;;;;;6.10;2.40;;;22.10;99.90;;;;;;6206772;23;20481;-77
2022/07/08 13:36:55;;;;;;;5.68;2.38;;;22.10;99.90;;;;;;6158020;23;20063;-77
2022/07/08 13:39:21;;;;;;;9.55;3.22;;;22.10;99.90;;;;;;6158204;23;20021;-78
2022/07/08 13:41:47;;;;;;;8.40;2.80;;;22.10;99.90;;;;;;6182859;23;20426;-78
2022/07/08 13:44:13;;;;;;;6.32;2.72;;;22.00;99.90;;;;;;6181504;23;20044;-77
2022/07/08 13:46:39;;;;;;;9.82;2.65;;;22.00;99.90;;;;;;6182116;23;20326;-76
2022/07/08 13:49:04;;;;;;;6.35;2.22;;;22.00;99.90;;;;;;6157656;23;20023;-76
2022/07/08 13:51:31;;;;;;;8.35;2.70;;;22.00;99.90;;;;;;6182003;23;20465;-77
2022/07/08 13:53:57;;;;;;;6.63;2.40;;;22.10;99.90;;;;;;6182049;23;20055;-76
2022/07/08 13:56:24;;;;;;;8.02;2.17;;;22.30;99.90;;;;;;6182705;23;20431;-76
2022/07/08 13:58:50;;;;;;;7.05;2.30;;;22.70;99.90;;;;;;6181572;23;20087;-78
2022/07/08 14:01:18;;;;;;;7.57;2.70;;;23.20;99.90;;;;;;6182454;23;20016;-76
2022/07/08 14:03:44;;;;;;;6.95;2.50;;;23.50;99.90;;;;;;6206530;23;20025;-76
2022/07/08 14:06:10;;;;;;;5.90;2.15;;;23.80;99.90;;;;;;6206879;23;20043;-77
2022/07/08 14:08:36;;;;;;;7.28;1.83;;;23.80;99.90;;;;;;6181258;23;20071;-77
2022/07/08 14:11:03;;;;;;;6.78;1.90;;;23.90;99.90;;;;;;6182410;23;20056;-75
2022/07/08 14:13:30;;;;;;;6.10;1.98;;;24.00;99.90;;;;;;6180150;23;20025;-74
2022/07/08 14:15:56;;;;;;;8.57;2.30;;;24.00;99.90;;;;;;6202073;23;20458;-73
2022/07/08 14:18:21;;;;;;;6.18;2.50;;;24.00;99.90;;;;;;6180196;23;20020;-74
2022/07/08 14:20:47;;;;;;;7.18;1.80;;;24.00;99.90;;;;;;6180425;23;20021;-74
2022/07/08 14:23:13;;;;;;;9.30;2.38;;;23.90;99.90;;;;;;6155300;23;20107;-75
2022/07/08 14:25:40;;;;;;;6.55;1.98;;;24.10;99.90;;;;;;6155964;23;20028;-74
2022/07/08 14:28:06;;;;;;;9.43;2.42;;;24.20;99.90;;;;;;6206047;23;20052;-74
2022/07/08 14:30:31;;;;;;;8.63;2.35;;;24.50;99.90;;;;;;6181143;23;20032;-74
2022/07/08 14:32:57;;;;;;;8.60;2.10;;;24.80;99.90;;;;;;6157124;23;20025;-73
2022/07/08 14:35:23;;;;;;;6.47;2.00;;;25.10;99.90;;;;;;6182341;23;20029;-74
2022/07/08 14:37:49;;;;;;;7.30;2.03;;;25.10;99.90;;;;;;6157592;23;20091;-74
2022/07/08 14:40:15;;;;;;;7.55;2.15;;;25.10;99.90;;;;;;6182541;23;20028;-74
2022/07/08 14:42:40;;;;;;;10.02;2.20;;;24.90;99.90;;;;;;6180598;23;20030;-74
2022/07/08 14:45:07;;;;;;;5.93;1.73;;;24.90;99.90;;;;;;6182278;23;20013;-73
2022/07/08 14:47:32;;;;;;;7.28;1.70;;;25.00;99.90;;;;;;6181341;23;20051;-74
2022/07/08 14:49:58;;;;;;;7.28;1.85;;;24.90;99.90;;;;;;6181962;23;20016;-74
2022/07/08 14:52:24;;;;;;;7.07;2.08;;;25.00;99.90;;;;;;6206853;23;20024;-75
2022/07/08 14:54:50;;;;;;;6.13;1.95;;;25.00;99.90;;;;;;6180167;23;20032;-74
2022/07/08 14:57:16;;;;;;;7.40;2.15;;;24.80;99.90;;;;;;6180557;23;20396;-74
2022/07/08 14:59:42;;;;;;;7.72;2.20;;;24.80;99.90;;;;;;6179315;23;20424;-73
2022/07/08 15:02:07;;;;;;;9.30;2.42;;;24.80;99.90;;;;;;6207406;23;20016;-74
2022/07/08 15:04:33;;;;;;;7.45;2.20;;;24.70;99.90;;;;;;6155050;23;20409;-74
2022/07/08 15:06:59;;;;;;;9.02;2.35;;;24.60;99.90;;;;;;6156341;23;20016;-73
2022/07/08 15:09:28;;;;;;;9.50;3.15;;;24.50;99.90;;;;;;6181257;23;20020;-74
2022/07/08 15:11:53;;;;;;;7.10;2.40;;;24.40;99.90;;;;;;6182713;23;20019;-73
2022/07/08 15:14:19;;;;;;;7.75;2.42;;;24.40;99.90;;;;;;6180760;23;20136;-74
2022/07/08 15:16:46;;;;;;;5.90;2.13;;;24.50;99.90;;;;;;6206984;23;20025;-74
2022/07/08 15:19:12;;;;;;;7.15;2.10;;;24.70;99.90;;;;;;6206028;23;20021;-74
2022/07/08 15:21:38;;;;;;;7.72;2.45;;;24.70;99.90;;;;;;6180430;23;20059;-74
2022/07/08 15:24:04;;;;;;;7.15;2.45;;;24.60;99.90;;;;;;6180962;23;20020;-74
2022/07/08 15:26:30;;;;;;;6.57;1.88;;;24.60;99.90;;;;;;6178284;23;20063;-74
2022/07/08 15:28:56;;;;;;;6.13;2.00;;;24.70;99.90;;;;;;6178754;23;20353;-74
2022/07/08 15:31:25;;;;;;;5.10;1.80;;;24.90;99.90;;;;;;6207083;23;20024;-74
2022/07/08 15:33:51;;;;;;;5.68;1.90;;;25.00;99.90;;;;;;6155611;23;20064;-74
2022/07/08 15:36:17;;;;;;;7.25;1.80;;;25.10;99.90;;;;;;6178915;23;20438;-74
2022/07/08 15:38:43;;;;;;;6.88;2.25;;;25.10;99.90;;;;;;6180755;23;20021;-74
2022/07/08 15:41:10;;;;;;;6.65;2.05;;;25.30;99.90;;;;;;6205379;23;20043;-74
2022/07/08 15:43:35;;;;;;;11.02;2.55;;;25.40;99.90;;;;;;6205607;23;20028;-74
2022/07/08 15:46:01;;;;;;;6.05;2.20;;;25.50;99.90;;;;;;6181405;23;20017;-74
2022/07/08 15:48:27;;;;;;;5.95;1.90;;;25.30;99.90;;;;;;6156382;23;20027;-74
2022/07/08 15:50:53;;;;;;;5.80;2.17;;;25.10;99.90;;;;;;6204973;23;20017;-74
2022/07/08 15:53:25;;;;;;;7.07;1.75;;;25.00;99.90;;;;;;6203973;23;20035;-75
2022/07/08 15:55:51;;;;;;;7.20;2.55;;;25.00;99.90;;;;;;6180698;23;20017;-74
2022/07/08 15:58:16;;;;;;;4.85;1.67;;;25.00;99.90;;;;;;6181294;23;20051;-74
2022/07/08 16:00:42;;;;;;;8.40;2.33;;;25.00;99.90;;;;;;6202644;23;20406;-74
2022/07/08 16:03:08;;;;;;;7.15;1.90;;;25.10;99.90;;;;;;6204064;23;20063;-74
2022/07/08 16:05:34;;;;;;;8.38;1.85;;;24.90;99.90;;;;;;6179243;23;20032;-75
2022/07/08 16:08:00;;;;;;;4.95;1.92;;;24.60;99.90;;;;;;6180442;23;20293;-74
2022/07/08 16:10:26;;;;;;;9.38;2.05;;;24.30;99.90;;;;;;6202601;23;20252;-74